createdAt,value
2019-02-03T00:00:14.949Z,1.98
2019-02-03T00:02:46.211Z,1.93
2019-02-03T00:05:15.704Z,1.91
2019-02-03T00:07:45.337Z,1.83
2019-02-03T00:10:14.768Z,1.73
2019-02-03T00:12:44.409Z,1.69
2019-02-03T00:15:13.828Z,1.69
2019-02-03T00:17:44.313Z,1.70
2019-02-03T00:20:13.758Z,1.68
2019-02-03T00:22:43.502Z,1.63
2019-02-03T00:25:13.187Z,1.60
2019-02-03T00:27:42.726Z,1.53
2019-02-03T00:30:14.623Z,1.46
2019-02-03T00:32:45.088Z,1.45
2019-02-03T00:35:14.748Z,1.42
2019-02-03T00:37:44.515Z,1.40
2019-02-03T00:40:15.349Z,1.38
2019-02-03T00:42:44.651Z,1.40
2019-02-03T00:45:15.093Z,1.39
2019-02-03T00:47:44.712Z,1.41
2019-02-03T00:50:16.545Z,1.38
2019-02-03T00:52:45.839Z,1.34
2019-02-03T00:55:17.432Z,1.32
2019-02-03T00:57:47.030Z,1.30
2019-02-03T01:00:17.800Z,1.26
2019-02-03T01:02:47.460Z,1.25
2019-02-03T01:05:18.776Z,1.25
2019-02-03T01:07:48.449Z,1.26
2019-02-03T01:10:20.342Z,1.27
2019-02-03T01:12:49.954Z,1.27
2019-02-03T01:15:19.613Z,1.28
2019-02-03T01:17:48.959Z,1.26
2019-02-03T01:20:23.342Z,1.26
2019-02-03T01:22:54.345Z,1.25
2019-02-03T01:25:24.000Z,1.25
2019-02-03T01:27:53.635Z,1.27
2019-02-03T01:30:24.001Z,1.27
2019-02-03T01:32:53.846Z,1.28
2019-02-03T01:35:23.205Z,1.30
2019-02-03T01:37:52.968Z,1.34
2019-02-03T01:40:22.913Z,1.35
2019-02-03T01:42:55.110Z,1.37
2019-02-03T01:45:24.793Z,1.42
2019-02-03T01:47:54.150Z,1.39
2019-02-03T01:50:23.831Z,1.40
2019-02-03T01:52:53.519Z,1.42
2019-02-03T01:55:25.605Z,1.43
2019-02-03T01:57:55.204Z,1.41
2019-02-03T02:00:26.892Z,1.36
2019-02-03T02:02:56.836Z,1.30
2019-02-03T02:05:26.181Z,1.30
2019-02-03T02:07:55.705Z,1.27
2019-02-03T02:10:28.567Z,1.23
2019-02-03T02:12:57.927Z,1.19
2019-02-03T02:15:28.244Z,1.14
2019-02-03T02:17:57.783Z,1.12
2019-02-03T02:20:30.332Z,1.09
2019-02-03T02:22:59.771Z,1.08
2019-02-03T02:25:29.126Z,1.09
2019-02-03T02:27:58.774Z,1.06
2019-02-03T02:30:28.214Z,1.06
2019-02-03T02:32:57.882Z,1.01
2019-02-03T02:35:27.218Z,0.95
2019-02-03T02:38:05.919Z,0.90
2019-02-03T02:40:28.095Z,0.91
2019-02-03T02:42:58.175Z,0.94
2019-02-03T02:45:27.851Z,0.95
2019-02-03T02:47:57.198Z,0.95
2019-02-03T02:50:30.104Z,0.95
2019-02-03T02:52:59.822Z,0.99
2019-02-03T02:55:29.783Z,1.01
2019-02-03T02:57:59.217Z,1.03
2019-02-03T03:00:28.918Z,1.04
2019-02-03T03:02:58.523Z,1.03
2019-02-03T03:05:27.955Z,1.00
2019-02-03T03:07:58.853Z,0.99
2019-02-03T03:10:28.198Z,0.97
2019-02-03T03:12:58.056Z,0.96
2019-02-03T03:15:27.393Z,0.94
2019-02-03T03:17:57.362Z,0.93
2019-02-03T03:20:26.845Z,0.93
2019-02-03T03:22:58.913Z,0.93
2019-02-03T03:25:28.263Z,0.94
2019-02-03T03:27:58.207Z,0.93
2019-02-03T03:30:28.957Z,0.95
2019-02-03T03:32:59.248Z,0.94
2019-02-03T03:35:29.057Z,0.94
2019-02-03T03:37:59.119Z,0.97
2019-02-03T03:40:29.322Z,0.98
2019-02-03T03:42:58.670Z,1.00
2019-02-03T03:45:28.162Z,1.02
2019-02-03T03:47:57.515Z,1.02
2019-02-03T03:50:27.174Z,1.00
2019-02-03T03:52:57.082Z,1.01
2019-02-03T03:55:26.976Z,1.00
2019-02-03T03:57:56.339Z,0.97
2019-02-03T04:00:26.260Z,0.94
2019-02-03T04:02:55.920Z,0.93
2019-02-03T04:05:25.813Z,0.90
2019-02-03T04:07:55.243Z,0.92
2019-02-03T04:10:24.890Z,0.93
2019-02-03T04:12:54.390Z,0.93
2019-02-03T04:15:24.343Z,0.94
2019-02-03T04:17:54.038Z,0.96
2019-02-03T04:20:31.108Z,0.98
2019-02-03T04:23:00.474Z,0.99
2019-02-03T04:25:30.118Z,1.02
2019-02-03T04:28:00.102Z,1.05
2019-02-03T04:30:29.446Z,1.02
2019-02-03T04:32:59.119Z,1.04
2019-02-03T04:35:28.468Z,1.00
2019-02-03T04:37:58.115Z,0.97
2019-02-03T04:40:27.546Z,0.97
2019-02-03T04:42:57.412Z,0.96
2019-02-03T04:45:27.068Z,0.96
2019-02-03T04:47:56.672Z,0.95
2019-02-03T04:50:26.339Z,0.95
2019-02-03T04:52:55.654Z,0.98
2019-02-03T04:55:25.380Z,1.02
2019-02-03T04:57:55.041Z,1.04
2019-02-03T05:00:25.174Z,1.02
2019-02-03T05:02:54.506Z,0.99
2019-02-03T05:05:24.409Z,0.96
2019-02-03T05:07:54.246Z,0.97
2019-02-03T05:10:23.609Z,0.96
2019-02-03T05:12:53.283Z,0.94
2019-02-03T05:15:23.524Z,0.91
2019-02-03T05:17:53.181Z,0.90
2019-02-03T05:20:24.560Z,0.88
2019-02-03T05:22:54.213Z,0.88
2019-02-03T05:25:23.621Z,0.88
2019-02-03T05:27:53.371Z,0.86
2019-02-03T05:30:28.161Z,0.85
2019-02-03T05:32:57.461Z,0.86
2019-02-03T05:35:26.826Z,0.87
2019-02-03T05:37:58.901Z,0.92
2019-02-03T05:40:28.297Z,0.97
2019-02-03T05:42:57.658Z,0.97
2019-02-03T05:45:27.603Z,1.01
2019-02-03T05:47:57.331Z,1.02
2019-02-03T05:50:26.925Z,1.06
2019-02-03T05:52:56.331Z,1.08
2019-02-03T05:55:25.685Z,1.11
2019-02-03T05:57:55.296Z,1.13
2019-02-03T06:00:35.760Z,1.15
2019-02-03T06:03:05.666Z,1.15
2019-02-03T06:05:35.316Z,1.12
2019-02-03T06:08:04.744Z,1.12
2019-02-03T06:10:34.288Z,1.11
2019-02-03T06:13:03.645Z,1.10
2019-02-03T06:15:33.548Z,1.09
2019-02-03T06:18:02.952Z,1.10
2019-02-03T06:20:35.659Z,1.11
2019-02-03T06:23:05.302Z,1.14
2019-02-03T06:25:34.960Z,1.18
2019-02-03T06:28:05.000Z,1.22
2019-02-03T06:30:57.167Z,1.25
2019-02-03T06:33:26.790Z,1.28
2019-02-03T06:35:57.129Z,1.29
2019-02-03T06:38:27.961Z,1.27
2019-02-03T06:40:57.263Z,1.27
2019-02-03T06:43:27.282Z,1.24
2019-02-03T06:46:10.470Z,1.25
2019-02-03T06:48:39.845Z,1.27
2019-02-03T06:51:10.040Z,1.29
2019-02-03T06:53:40.254Z,1.33
2019-02-03T06:56:11.817Z,1.37
2019-02-03T06:58:41.172Z,1.41
2019-02-03T07:01:10.813Z,1.48
2019-02-03T07:03:40.354Z,1.51
2019-02-03T07:06:10.294Z,1.50
2019-02-03T07:08:39.923Z,1.48
2019-02-03T07:11:10.185Z,1.54
2019-02-03T07:13:40.225Z,1.54
2019-02-03T07:16:10.118Z,1.58
2019-02-03T07:18:40.384Z,1.59
2019-02-03T07:21:10.127Z,1.60
2019-02-03T07:23:40.571Z,1.63
2019-02-03T07:26:11.472Z,1.63
2019-02-03T07:28:41.082Z,1.67
2019-02-03T07:31:11.000Z,1.70
2019-02-03T07:33:40.654Z,1.72
2019-02-03T07:36:10.221Z,1.77
2019-02-03T07:38:39.882Z,1.81
2019-02-03T07:41:10.274Z,1.83
2019-02-03T07:43:40.320Z,1.85
2019-02-03T07:46:10.274Z,1.90
2019-02-03T07:48:40.322Z,1.93
2019-02-03T07:51:10.224Z,1.95
2019-02-03T07:53:39.869Z,1.99
2019-02-03T07:56:10.307Z,2.02
2019-02-03T07:58:39.913Z,2.07
2019-02-03T08:01:16.309Z,2.05
2019-02-03T08:03:45.832Z,2.04
2019-02-03T08:06:15.323Z,2.05
2019-02-03T08:08:46.602Z,2.06
2019-02-03T08:11:16.367Z,2.13
2019-02-03T08:13:45.943Z,2.26
2019-02-03T08:16:15.284Z,2.40
2019-02-03T08:18:44.891Z,2.52
2019-02-03T08:21:14.242Z,2.68
2019-02-03T08:23:43.888Z,2.96
2019-02-03T08:26:13.287Z,3.21
2019-02-03T08:28:42.937Z,3.74
2019-02-03T08:31:12.872Z,3.74
2019-02-03T08:33:42.223Z,3.95
2019-02-03T08:36:13.856Z,4.15
2019-02-03T08:38:43.187Z,4.37
2019-02-03T08:41:13.240Z,4.74
2019-02-03T08:43:43.256Z,4.74
2019-02-03T08:46:12.897Z,4.89
2019-02-03T08:48:42.295Z,5.08
2019-02-03T08:51:11.586Z,5.29
2019-02-03T08:53:41.388Z,5.48
2019-02-03T08:56:11.077Z,5.64
2019-02-03T08:58:41.012Z,5.78
2019-02-03T09:01:10.426Z,5.97
2019-02-03T09:03:40.331Z,6.11
2019-02-03T09:06:10.390Z,6.42
2019-02-03T09:08:42.584Z,6.42
2019-02-03T09:11:11.429Z,6.56
2019-02-03T09:13:42.079Z,6.67
2019-02-03T09:16:12.295Z,6.77
2019-02-03T09:18:43.901Z,6.94
2019-02-03T09:21:13.531Z,7.05
2019-02-03T09:23:44.195Z,7.21
2019-02-03T09:26:13.542Z,7.44
2019-02-03T09:28:44.966Z,7.73
2019-02-03T09:31:14.434Z,8.04
2019-02-03T09:33:44.343Z,8.49
2019-02-03T09:36:14.342Z,8.49
2019-02-03T09:38:44.913Z,8.63
2019-02-03T09:41:14.363Z,8.75
2019-02-03T09:43:44.183Z,8.74
2019-02-03T09:46:13.570Z,8.74
2019-02-03T09:48:44.683Z,8.76
2019-02-03T09:51:14.713Z,8.82
2019-02-03T09:53:44.135Z,9.00
2019-02-03T09:56:13.801Z,9.16
2019-02-03T09:58:43.267Z,9.38
2019-02-03T10:01:12.617Z,9.64
2019-02-03T10:03:42.252Z,9.96
2019-02-03T10:06:12.597Z,10.25
2019-02-03T10:08:42.362Z,10.48
2019-02-03T10:11:12.458Z,10.72
2019-02-03T10:13:42.366Z,10.88
2019-02-03T10:16:11.758Z,10.95
2019-02-03T10:18:42.582Z,11.03
2019-02-03T10:21:12.532Z,11.14
2019-02-03T10:23:42.151Z,11.18
2019-02-03T10:26:11.827Z,11.18
2019-02-03T10:28:41.592Z,11.20
2019-02-03T10:31:11.239Z,11.12
2019-02-03T10:33:40.650Z,11.05
2019-02-03T10:36:10.910Z,11.09
2019-02-03T10:38:40.256Z,11.02
2019-02-03T10:41:10.526Z,11.00
2019-02-03T10:43:40.133Z,11.04
2019-02-03T10:46:10.616Z,11.10
2019-02-03T10:48:40.625Z,11.19
2019-02-03T10:51:10.697Z,11.45
2019-02-03T10:53:40.213Z,11.77
2019-02-03T10:56:10.640Z,11.99
2019-02-03T10:58:40.265Z,12.13
2019-02-03T11:01:10.923Z,12.19
2019-02-03T11:03:40.331Z,12.33
2019-02-03T11:06:10.573Z,12.38
2019-02-03T11:08:40.197Z,12.53
2019-02-03T11:11:10.968Z,12.66
2019-02-03T11:13:41.296Z,12.69
2019-02-03T11:16:11.707Z,12.71
2019-02-03T11:18:41.343Z,12.68
2019-02-03T11:21:10.960Z,12.71
2019-02-03T11:23:41.405Z,12.89
2019-02-03T11:26:11.527Z,12.97
2019-02-03T11:28:41.482Z,12.82
2019-02-03T11:31:11.657Z,12.47
2019-02-03T11:33:41.631Z,12.29
2019-02-03T11:36:12.228Z,12.22
2019-02-03T11:38:41.518Z,12.25
2019-02-03T11:41:10.858Z,12.34
2019-02-03T11:43:43.364Z,12.55
2019-02-03T11:46:11.815Z,12.69
2019-02-03T11:48:41.401Z,12.85
2019-02-03T11:51:11.142Z,13.09
2019-02-03T11:53:40.549Z,13.06
2019-02-03T11:56:11.139Z,12.66
2019-02-03T11:58:42.312Z,12.22
2019-02-03T12:01:12.795Z,11.83
2019-02-03T12:03:42.567Z,11.45
2019-02-03T12:06:13.426Z,11.06
2019-02-03T12:08:43.759Z,10.82
2019-02-03T12:11:14.252Z,10.68
2019-02-03T12:13:43.756Z,10.44
2019-02-03T12:16:13.440Z,10.20
2019-02-03T12:18:42.772Z,10.02
2019-02-03T12:21:13.100Z,9.87
2019-02-03T12:23:42.781Z,9.78
2019-02-03T12:26:13.058Z,9.70
2019-02-03T12:28:42.763Z,9.55
2019-02-03T12:31:12.376Z,9.44
2019-02-03T12:33:42.885Z,9.36
2019-02-03T12:36:12.899Z,9.19
2019-02-03T12:38:42.975Z,9.01
2019-02-03T12:41:13.267Z,8.93
2019-02-03T12:43:42.794Z,8.79
2019-02-03T12:46:12.148Z,8.79
2019-02-03T12:48:41.792Z,8.75
2019-02-03T12:51:11.165Z,8.59
2019-02-03T12:53:40.815Z,8.43
2019-02-03T12:56:11.891Z,8.43
2019-02-03T12:58:41.230Z,8.39
2019-02-03T13:01:11.210Z,8.33
2019-02-03T13:03:40.868Z,8.25
2019-02-03T13:06:11.491Z,7.99
2019-02-03T13:08:40.973Z,7.82
2019-02-03T13:11:11.246Z,7.82
2019-02-03T13:13:40.942Z,7.54
2019-02-03T13:16:11.462Z,7.54
2019-02-03T13:18:46.669Z,7.29
2019-02-03T13:21:16.294Z,7.29
2019-02-03T13:23:45.948Z,7.14
2019-02-03T13:26:15.263Z,7.06
2019-02-03T13:28:44.847Z,7.02
2019-02-03T13:31:14.172Z,7.02
2019-02-03T13:33:44.065Z,7.05
2019-02-03T13:36:13.397Z,7.07
2019-02-03T13:38:43.061Z,7.02
2019-02-03T13:41:12.388Z,6.89
2019-02-03T13:43:42.009Z,6.81
2019-02-03T13:46:11.690Z,6.82
2019-02-03T13:48:41.023Z,6.83
2019-02-03T13:51:11.240Z,6.78
2019-02-03T13:53:41.059Z,6.66
2019-02-03T13:56:11.384Z,6.66
2019-02-03T13:58:40.966Z,6.47
2019-02-03T14:01:11.341Z,6.47
2019-02-03T14:03:40.916Z,6.37
2019-02-03T14:06:11.318Z,6.27
2019-02-03T14:08:40.661Z,6.27
2019-02-03T14:11:11.311Z,6.20
2019-02-03T14:13:41.182Z,6.16
2019-02-03T14:16:11.352Z,6.06
2019-02-03T14:18:41.894Z,6.03
2019-02-03T14:21:11.725Z,6.03
2019-02-03T14:23:41.724Z,6.03
2019-02-03T14:26:11.866Z,6.06
2019-02-03T14:28:42.035Z,6.11
2019-02-03T14:31:12.210Z,6.14
2019-02-03T14:33:41.836Z,6.14
2019-02-03T14:36:11.511Z,6.08
2019-02-03T14:38:41.166Z,6.05
2019-02-03T14:41:11.480Z,6.17
2019-02-03T14:43:41.134Z,6.46
2019-02-03T14:46:11.633Z,6.46
2019-02-03T14:48:41.266Z,6.68
2019-02-03T14:51:11.458Z,6.87
2019-02-03T14:53:41.219Z,7.12
2019-02-03T14:56:11.534Z,7.36
2019-02-03T14:58:41.198Z,7.86
2019-02-03T15:01:11.505Z,7.86
2019-02-03T15:03:42.745Z,8.07
2019-02-03T15:06:12.364Z,8.11
2019-02-03T15:08:41.756Z,8.18
2019-02-03T15:11:11.951Z,8.23
2019-02-03T15:13:41.292Z,8.06
2019-02-03T15:16:11.586Z,7.91
2019-02-03T15:18:41.235Z,7.86
2019-02-03T15:21:11.977Z,7.86
2019-02-03T15:23:41.491Z,7.88
2019-02-03T15:26:11.899Z,7.85
2019-02-03T15:28:41.237Z,7.84
2019-02-03T15:31:12.867Z,7.85
2019-02-03T15:33:42.247Z,7.62
2019-02-03T15:36:12.243Z,7.62
2019-02-03T15:38:41.593Z,7.51
2019-02-03T15:41:11.533Z,7.36
2019-02-03T15:43:41.419Z,7.22
2019-02-03T15:46:11.750Z,7.02
2019-02-03T15:48:41.256Z,6.70
2019-02-03T15:51:11.585Z,6.70
2019-02-03T15:53:40.910Z,6.57
2019-02-03T15:56:11.733Z,6.46
2019-02-03T15:58:41.377Z,6.36
2019-02-03T16:01:11.755Z,6.25
2019-02-03T16:03:42.793Z,6.13
2019-02-03T16:06:12.415Z,6.01
2019-02-03T16:08:41.886Z,5.91
2019-02-03T16:11:11.730Z,5.80
2019-02-03T16:13:41.537Z,5.71
2019-02-03T16:16:11.683Z,5.59
2019-02-03T16:18:41.355Z,5.46
2019-02-03T16:21:12.011Z,5.34
2019-02-03T16:23:41.825Z,5.21
2019-02-03T16:26:13.683Z,5.16
2019-02-03T16:28:44.049Z,5.11
2019-02-03T16:31:13.397Z,5.05
2019-02-03T16:33:42.720Z,4.99
2019-02-03T16:36:12.411Z,4.94
2019-02-03T16:38:42.547Z,4.91
2019-02-03T16:41:12.029Z,4.88
2019-02-03T16:43:48.750Z,4.85
2019-02-03T16:46:12.951Z,4.81
2019-02-03T16:48:42.422Z,4.79
2019-02-03T16:51:11.776Z,4.81
2019-02-03T16:53:41.736Z,4.80
2019-02-03T16:56:12.155Z,4.76
2019-02-03T16:58:43.394Z,4.58
2019-02-03T17:01:12.797Z,4.58
2019-02-03T17:03:42.427Z,4.46
2019-02-03T17:06:11.834Z,4.38
2019-02-03T17:08:41.485Z,4.35
2019-02-03T17:11:11.789Z,4.26
2019-02-03T17:13:41.405Z,4.19
2019-02-03T17:16:12.439Z,4.16
2019-02-03T17:18:44.943Z,4.13
2019-02-03T17:21:14.598Z,4.10
2019-02-03T17:23:43.926Z,4.05
2019-02-03T17:26:13.596Z,4.00
2019-02-03T17:28:43.303Z,3.98
2019-02-03T17:31:12.859Z,3.97
2019-02-03T17:33:42.741Z,3.97
2019-02-03T17:36:12.092Z,3.96
2019-02-03T17:38:41.639Z,3.96
2019-02-03T17:41:11.909Z,3.90
2019-02-03T17:43:41.477Z,3.87
2019-02-03T17:46:11.837Z,3.84
2019-02-03T17:48:41.458Z,3.84
2019-02-03T17:51:11.871Z,3.88
2019-02-03T17:53:41.494Z,3.88
2019-02-03T17:56:13.976Z,3.88
2019-02-03T17:58:43.599Z,3.88
2019-02-03T18:01:12.938Z,3.85
2019-02-03T18:03:42.933Z,3.82
2019-02-03T18:06:12.524Z,3.80
2019-02-03T18:08:41.846Z,3.80
2019-02-03T18:11:11.985Z,3.82
2019-02-03T18:13:41.587Z,3.82
2019-02-03T18:16:12.883Z,3.80
2019-02-03T18:18:42.213Z,3.78
2019-02-03T18:21:12.238Z,3.75
2019-02-03T18:23:41.784Z,3.72
2019-02-03T18:26:12.925Z,3.69
2019-02-03T18:28:42.865Z,3.65
2019-02-03T18:31:12.817Z,3.63
2019-02-03T18:33:42.151Z,3.60
2019-02-03T18:36:13.003Z,3.55
2019-02-03T18:38:42.681Z,3.55
2019-02-03T18:41:12.836Z,3.57
2019-02-03T18:43:42.717Z,3.57
2019-02-03T18:46:12.879Z,3.55
2019-02-03T18:48:42.500Z,3.56
2019-02-03T18:51:12.861Z,3.57
2019-02-03T18:53:42.188Z,3.57
2019-02-03T18:56:12.346Z,3.53
2019-02-03T18:58:41.711Z,3.51
2019-02-03T19:01:12.449Z,3.52
2019-02-03T19:03:41.780Z,3.52
2019-02-03T19:06:13.155Z,3.52
2019-02-03T19:08:42.806Z,3.52
2019-02-03T19:11:12.255Z,3.50
2019-02-03T19:13:42.616Z,3.48
2019-02-03T19:16:12.758Z,3.45
2019-02-03T19:18:42.723Z,3.42
2019-02-03T19:21:16.534Z,3.41
2019-02-03T19:23:47.114Z,3.40
2019-02-03T19:26:16.808Z,3.36
2019-02-03T19:28:47.098Z,3.35
2019-02-03T19:31:16.732Z,3.29
2019-02-03T19:33:46.400Z,3.27
2019-02-03T19:36:16.162Z,3.21
2019-02-03T19:38:45.802Z,3.15
2019-02-03T19:41:15.141Z,3.11
2019-02-03T19:43:44.799Z,3.09
2019-02-03T19:46:14.362Z,3.10
2019-02-03T19:48:43.783Z,3.10
2019-02-03T19:51:13.659Z,3.10
2019-02-03T19:53:42.999Z,3.09
2019-02-03T19:56:13.595Z,3.08
2019-02-03T19:58:43.194Z,3.07
2019-02-03T20:01:12.817Z,3.04
2019-02-03T20:03:43.074Z,3.02
2019-02-03T20:06:12.415Z,2.97
2019-02-03T20:08:44.449Z,2.92
2019-02-03T20:11:13.127Z,2.84
2019-02-03T20:13:43.020Z,2.84
2019-02-03T20:16:12.346Z,2.83
2019-02-03T20:18:41.834Z,2.82
2019-02-03T20:21:12.166Z,2.81
2019-02-03T20:23:41.752Z,2.79
2019-02-03T20:26:12.377Z,2.77
2019-02-03T20:28:41.929Z,2.75
2019-02-03T20:31:12.256Z,2.72
2019-02-03T20:33:41.946Z,2.70
2019-02-03T20:36:12.589Z,2.65
2019-02-03T20:38:42.047Z,2.61
2019-02-03T20:41:12.380Z,2.60
2019-02-03T20:43:42.043Z,2.58
2019-02-03T20:46:12.271Z,2.53
2019-02-03T20:48:41.630Z,2.47
2019-02-03T20:51:12.432Z,2.47
2019-02-03T20:53:42.067Z,2.69
2019-02-03T20:56:12.390Z,2.84
2019-02-03T20:58:42.401Z,2.86
2019-02-03T21:01:12.443Z,2.78
2019-02-03T21:03:42.799Z,2.64
2019-02-03T21:06:12.493Z,2.56
2019-02-03T21:08:42.415Z,2.51
2019-02-03T21:11:12.395Z,2.47
2019-02-03T21:13:42.461Z,2.38
2019-02-03T21:16:12.349Z,2.32
2019-02-03T21:18:42.792Z,2.25
2019-02-03T21:21:12.434Z,2.18
2019-02-03T21:23:42.899Z,2.11
2019-02-03T21:26:16.479Z,2.04
2019-02-03T21:28:44.171Z,1.98
2019-02-03T21:31:13.501Z,1.93
2019-02-03T21:33:43.230Z,1.90
2019-02-03T21:36:12.556Z,1.83
2019-02-03T21:38:43.127Z,1.80
2019-02-03T21:41:12.575Z,1.77
2019-02-03T21:43:42.798Z,1.77
2019-02-03T21:46:12.506Z,1.79
2019-02-03T21:48:42.234Z,1.79
2019-02-03T21:51:12.597Z,1.76
2019-02-03T21:53:43.091Z,1.77
2019-02-03T21:56:12.481Z,1.78
2019-02-03T21:58:43.008Z,1.76
2019-02-03T22:01:12.485Z,1.74
2019-02-03T22:03:43.344Z,1.72
2019-02-03T22:06:12.767Z,1.73
2019-02-03T22:08:42.509Z,1.70
2019-02-03T22:11:12.473Z,1.68
2019-02-03T22:13:42.278Z,1.71
2019-02-03T22:16:12.504Z,1.73
2019-02-03T22:18:42.706Z,1.75
2019-02-03T22:21:14.198Z,1.74
2019-02-03T22:23:43.811Z,1.74
2019-02-03T22:26:13.453Z,1.75
2019-02-03T22:28:43.093Z,1.77
2019-02-03T22:31:12.491Z,1.74
2019-02-03T22:33:42.153Z,1.70
2019-02-03T22:36:12.536Z,1.68
2019-02-03T22:38:42.156Z,1.66
2019-02-03T22:41:12.678Z,1.67
2019-02-03T22:43:43.347Z,1.66
2019-02-03T22:46:12.696Z,1.70
2019-02-03T22:48:42.169Z,1.69
2019-02-03T22:51:12.538Z,1.69
2019-02-03T22:53:42.165Z,1.67
2019-02-03T22:56:12.724Z,1.64
2019-02-03T22:58:42.446Z,1.63
2019-02-03T23:01:13.969Z,1.65
2019-02-03T23:03:43.667Z,1.64
2019-02-03T23:06:13.905Z,1.64
2019-02-03T23:08:43.274Z,1.62
2019-02-03T23:11:14.359Z,1.59
2019-02-03T23:13:43.932Z,1.57
2019-02-03T23:16:18.328Z,1.56
2019-02-03T23:18:44.599Z,1.56
2019-02-03T23:21:14.242Z,1.56
2019-02-03T23:23:43.595Z,1.55
2019-02-03T23:26:12.932Z,1.55
2019-02-03T23:28:42.272Z,1.55
2019-02-03T23:31:12.742Z,1.54
2019-02-03T23:33:42.391Z,1.53
2019-02-03T23:36:12.626Z,1.54
2019-02-03T23:38:42.366Z,1.54
2019-02-03T23:41:12.653Z,1.52
2019-02-03T23:43:42.317Z,1.49
2019-02-03T23:46:12.622Z,1.45
2019-02-03T23:48:41.965Z,1.43
2019-02-03T23:51:13.649Z,1.41
2019-02-03T23:53:43.271Z,1.36
2019-02-03T23:56:12.745Z,1.32
2019-02-03T23:58:43.533Z,1.35
